map of RIB home
RIB - Airport
Location
City:  Riberalta, Vaca Díez, El Beni, Bolivia
Name:Gen. Buech Airport
ICAO:SLRI
IATA:RIB

Details
Type:Airport (Aerodrome, Airfield)
Latitude:11°00'38"S (-11.010555)
Longitude:66°04'22"W (-66.072777)
Elevation:462 ft (141 m)
Variation:11.08°W (WMM2015 magnetic declination)
-0.18° annual change
Runways:1
Longest:5906 ft (1800 m)

Time
Time Zone:UTC-4
Local Time:

Weather
METAR:SLRI 161300Z 00000KT 9999 SCT010 BKN080 26/24 Q1012

Related Locations
Nearby:
Farthest:RPPN: 12426 mi / 19997 km
Thitu Island (Pagasa) [Rancudo Airfield], Spratly Islands, PLW, PH

Find:

   beyond  
but within

Other Information
Maps:
NOTAMs:
Links:
Sources:

  
  • flag of Bolivia
  • flag of El Beni
  

Sectional Chart

Flight Planning
at skyvector.com

Satellite Image

Google Maps Satellite view

 

Copyright © 2004-2018 Karl L. Swartz. All rights reserved.
The Great Circle Mapper name and logo are trademarks of the Great Circle Mapper.
All other trademarks mentioned herein belong to their respective owners.
Please see credits for attibutions and further copyright information.

  Follow gcmap on Facebook Follow gcmap on Twitter Follow gcmap on Google+ GCmap on LinkedIn

hCard Microformat

Geo Microformat